sensor_id;sensor_type;location;lat;lon;timestamp;P1;durP1;ratioP1;P2;durP2;ratioP2
34988;SDS011;21192;40.182;44.516;2022-07-29T00:01:51;17.80;;;5.28;;
34988;SDS011;21192;40.182;44.516;2022-07-29T00:04:18;15.25;;;5.45;;
34988;SDS011;21192;40.182;44.516;2022-07-29T00:06:44;13.23;;;5.55;;
34988;SDS011;21192;40.182;44.516;2022-07-29T00:09:10;12.95;;;5.50;;
34988;SDS011;21192;40.182;44.516;2022-07-29T00:11:36;18.30;;;5.20;;
34988;SDS011;21192;40.182;44.516;2022-07-29T00:14:02;11.13;;;5.90;;
34988;SDS011;21192;40.182;44.516;2022-07-29T00:16:28;12.45;;;5.78;;
34988;SDS011;21192;40.182;44.516;2022-07-29T00:18:54;14.85;;;6.45;;
34988;SDS011;21192;40.182;44.516;2022-07-29T00:21:20;13.25;;;6.55;;
34988;SDS011;21192;40.182;44.516;2022-07-29T00:23:46;14.38;;;6.45;;
34988;SDS011;21192;40.182;44.516;2022-07-29T00:26:12;17.63;;;6.00;;
34988;SDS011;21192;40.182;44.516;2022-07-29T00:28:38;11.55;;;6.35;;
34988;SDS011;21192;40.182;44.516;2022-07-29T00:31:04;20.77;;;7.18;;
34988;SDS011;21192;40.182;44.516;2022-07-29T00:33:30;15.38;;;5.15;;
34988;SDS011;21192;40.182;44.516;2022-07-29T00:35:56;14.70;;;5.68;;
34988;SDS011;21192;40.182;44.516;2022-07-29T00:38:22;15.82;;;5.88;;
34988;SDS011;21192;40.182;44.516;2022-07-29T00:40:48;15.70;;;5.93;;
34988;SDS011;21192;40.182;44.516;2022-07-29T00:43:14;16.10;;;4.75;;
34988;SDS011;21192;40.182;44.516;2022-07-29T00:45:41;16.05;;;5.80;;
34988;SDS011;21192;40.182;44.516;2022-07-29T00:48:07;14.00;;;6.13;;
34988;SDS011;21192;40.182;44.516;2022-07-29T00:50:34;14.32;;;6.00;;
34988;SDS011;21192;40.182;44.516;2022-07-29T00:53:01;17.10;;;5.75;;
34988;SDS011;21192;40.182;44.516;2022-07-29T00:55:29;16.17;;;5.65;;
34988;SDS011;21192;40.182;44.516;2022-07-29T00:57:55;14.20;;;6.35;;
34988;SDS011;21192;40.182;44.516;2022-07-29T01:00:24;13.73;;;5.60;;
34988;SDS011;21192;40.182;44.516;2022-07-29T01:02:51;16.58;;;5.82;;
34988;SDS011;21192;40.182;44.516;2022-07-29T01:05:19;21.35;;;6.35;;
34988;SDS011;21192;40.182;44.516;2022-07-29T01:07:46;18.25;;;6.50;;
34988;SDS011;21192;40.182;44.516;2022-07-29T01:10:14;15.60;;;5.90;;
34988;SDS011;21192;40.182;44.516;2022-07-29T01:12:41;18.92;;;5.82;;
34988;SDS011;21192;40.182;44.516;2022-07-29T01:15:10;15.40;;;5.55;;
34988;SDS011;21192;40.182;44.516;2022-07-29T01:17:59;15.65;;;6.50;;
34988;SDS011;21192;40.182;44.516;2022-07-29T01:23:21;14.05;;;5.80;;
34988;SDS011;21192;40.182;44.516;2022-07-29T01:31:33;13.25;;;5.25;;
34988;SDS011;21192;40.182;44.516;2022-07-29T01:34:07;18.42;;;5.38;;
34988;SDS011;21192;40.182;44.516;2022-07-29T01:36:37;12.07;;;5.78;;
34988;SDS011;21192;40.182;44.516;2022-07-29T01:39:42;12.00;;;7.63;;
34988;SDS011;21192;40.182;44.516;2022-07-29T01:42:06;9.40;;;5.50;;
34988;SDS011;21192;40.182;44.516;2022-07-29T01:44:49;13.60;;;5.32;;
34988;SDS011;21192;40.182;44.516;2022-07-29T01:48:00;13.50;;;4.97;;
34988;SDS011;21192;40.182;44.516;2022-07-29T01:50:45;15.25;;;5.13;;
34988;SDS011;21192;40.182;44.516;2022-07-29T01:53:34;14.50;;;5.53;;
34988;SDS011;21192;40.182;44.516;2022-07-29T01:56:07;10.15;;;5.32;;
34988;SDS011;21192;40.182;44.516;2022-07-29T01:58:35;16.05;;;5.80;;
34988;SDS011;21192;40.182;44.516;2022-07-29T02:01:03;15.57;;;5.28;;
34988;SDS011;21192;40.182;44.516;2022-07-29T02:03:31;10.88;;;4.72;;
34988;SDS011;21192;40.182;44.516;2022-07-29T02:06:01;18.30;;;5.40;;
34988;SDS011;21192;40.182;44.516;2022-07-29T02:08:28;11.85;;;4.80;;
34988;SDS011;21192;40.182;44.516;2022-07-29T02:10:55;11.45;;;4.35;;
34988;SDS011;21192;40.182;44.516;2022-07-29T02:13:23;10.93;;;5.22;;
34988;SDS011;21192;40.182;44.516;2022-07-29T02:15:52;12.95;;;4.85;;
34988;SDS011;21192;40.182;44.516;2022-07-29T02:18:20;11.40;;;4.35;;
34988;SDS011;21192;40.182;44.516;2022-07-29T02:20:50;15.60;;;4.78;;
34988;SDS011;21192;40.182;44.516;2022-07-29T02:23:22;12.55;;;4.78;;
34988;SDS011;21192;40.182;44.516;2022-07-29T02:25:49;17.83;;;4.72;;
34988;SDS011;21192;40.182;44.516;2022-07-29T02:28:20;18.02;;;4.72;;
34988;SDS011;21192;40.182;44.516;2022-07-29T02:30:49;14.48;;;5.15;;
34988;SDS011;21192;40.182;44.516;2022-07-29T02:33:18;10.13;;;4.53;;
34988;SDS011;21192;40.182;44.516;2022-07-29T02:35:47;14.82;;;5.53;;
34988;SDS011;21192;40.182;44.516;2022-07-29T02:38:16;13.75;;;4.78;;
34988;SDS011;21192;40.182;44.516;2022-07-29T02:41:03;13.57;;;4.93;;
34988;SDS011;21192;40.182;44.516;2022-07-29T02:43:40;15.23;;;5.47;;
34988;SDS011;21192;40.182;44.516;2022-07-29T02:46:10;13.63;;;4.78;;
34988;SDS011;21192;40.182;44.516;2022-07-29T02:48:59;15.15;;;4.68;;
34988;SDS011;21192;40.182;44.516;2022-07-29T02:51:33;16.40;;;6.00;;
34988;SDS011;21192;40.182;44.516;2022-07-29T02:54:08;23.45;;;5.15;;
34988;SDS011;21192;40.182;44.516;2022-07-29T02:56:39;12.10;;;4.63;;
34988;SDS011;21192;40.182;44.516;2022-07-29T02:59:10;19.52;;;5.32;;
34988;SDS011;21192;40.182;44.516;2022-07-29T03:01:39;14.57;;;5.10;;
34988;SDS011;21192;40.182;44.516;2022-07-29T03:04:08;16.02;;;5.72;;
34988;SDS011;21192;40.182;44.516;2022-07-29T03:06:36;14.90;;;5.50;;
34988;SDS011;21192;40.182;44.516;2022-07-29T03:09:03;19.25;;;5.75;;
34988;SDS011;21192;40.182;44.516;2022-07-29T03:11:31;16.30;;;5.78;;
34988;SDS011;21192;40.182;44.516;2022-07-29T03:14:00;18.48;;;5.25;;
34988;SDS011;21192;40.182;44.516;2022-07-29T03:16:26;18.95;;;5.57;;
34988;SDS011;21192;40.182;44.516;2022-07-29T03:18:53;16.45;;;5.90;;
34988;SDS011;21192;40.182;44.516;2022-07-29T03:21:20;17.35;;;5.20;;
34988;SDS011;21192;40.182;44.516;2022-07-29T03:23:46;18.48;;;5.60;;
34988;SDS011;21192;40.182;44.516;2022-07-29T03:26:12;16.55;;;5.35;;
34988;SDS011;21192;40.182;44.516;2022-07-29T03:28:38;12.90;;;5.10;;
34988;SDS011;21192;40.182;44.516;2022-07-29T03:31:04;15.88;;;4.57;;
34988;SDS011;21192;40.182;44.516;2022-07-29T03:33:30;12.73;;;4.32;;
34988;SDS011;21192;40.182;44.516;2022-07-29T03:35:56;15.40;;;5.40;;
34988;SDS011;21192;40.182;44.516;2022-07-29T03:38:23;18.85;;;5.70;;
34988;SDS011;21192;40.182;44.516;2022-07-29T03:40:56;18.45;;;5.97;;
34988;SDS011;21192;40.182;44.516;2022-07-29T03:43:27;15.02;;;5.20;;
34988;SDS011;21192;40.182;44.516;2022-07-29T03:45:58;20.42;;;5.90;;
34988;SDS011;21192;40.182;44.516;2022-07-29T03:48:27;17.27;;;6.07;;
34988;SDS011;21192;40.182;44.516;2022-07-29T03:50:55;14.85;;;4.97;;
34988;SDS011;21192;40.182;44.516;2022-07-29T03:53:21;15.63;;;4.93;;
34988;SDS011;21192;40.182;44.516;2022-07-29T03:55:50;18.25;;;5.30;;
34988;SDS011;21192;40.182;44.516;2022-07-29T03:58:22;13.27;;;4.55;;
34988;SDS011;21192;40.182;44.516;2022-07-29T04:00:51;10.63;;;4.68;;
34988;SDS011;21192;40.182;44.516;2022-07-29T04:03:17;20.45;;;5.20;;
34988;SDS011;21192;40.182;44.516;2022-07-29T04:05:44;16.95;;;5.55;;
34988;SDS011;21192;40.182;44.516;2022-07-29T04:08:10;16.88;;;5.10;;
34988;SDS011;21192;40.182;44.516;2022-07-29T04:10:36;21.85;;;6.00;;
34988;SDS011;21192;40.182;44.516;2022-07-29T04:13:03;19.60;;;5.68;;
34988;SDS011;21192;40.182;44.516;2022-07-29T04:15:29;27.23;;;6.43;;
34988;SDS011;21192;40.182;44.516;2022-07-29T04:17:55;21.60;;;7.20;;
34988;SDS011;21192;40.182;44.516;2022-07-29T04:20:21;24.63;;;7.63;;
34988;SDS011;21192;40.182;44.516;2022-07-29T04:22:47;20.77;;;6.82;;
34988;SDS011;21192;40.182;44.516;2022-07-29T04:25:12;28.58;;;7.13;;
34988;SDS011;21192;40.182;44.516;2022-07-29T04:27:38;27.83;;;7.35;;
34988;SDS011;21192;40.182;44.516;2022-07-29T04:30:24;27.23;;;7.85;;
34988;SDS011;21192;40.182;44.516;2022-07-29T04:32:50;18.48;;;7.07;;
34988;SDS011;21192;40.182;44.516;2022-07-29T04:35:17;19.83;;;6.38;;
34988;SDS011;21192;40.182;44.516;2022-07-29T04:37:43;26.55;;;7.20;;
34988;SDS011;21192;40.182;44.516;2022-07-29T04:40:09;27.30;;;7.90;;
34988;SDS011;21192;40.182;44.516;2022-07-29T04:42:36;28.65;;;7.15;;
34988;SDS011;21192;40.182;44.516;2022-07-29T04:45:03;22.60;;;6.72;;
34988;SDS011;21192;40.182;44.516;2022-07-29T04:47:29;17.13;;;5.97;;
34988;SDS011;21192;40.182;44.516;2022-07-29T04:49:55;12.93;;;5.25;;
34988;SDS011;21192;40.182;44.516;2022-07-29T04:52:21;14.88;;;4.95;;
34988;SDS011;21192;40.182;44.516;2022-07-29T04:54:48;15.18;;;5.45;;
34988;SDS011;21192;40.182;44.516;2022-07-29T04:57:14;19.95;;;4.60;;
34988;SDS011;21192;40.182;44.516;2022-07-29T04:59:40;16.88;;;5.45;;
34988;SDS011;21192;40.182;44.516;2022-07-29T05:02:06;15.35;;;5.07;;
34988;SDS011;21192;40.182;44.516;2022-07-29T05:04:32;17.90;;;5.35;;
34988;SDS011;21192;40.182;44.516;2022-07-29T05:06:57;14.13;;;5.32;;
34988;SDS011;21192;40.182;44.516;2022-07-29T05:09:23;19.58;;;5.90;;
34988;SDS011;21192;40.182;44.516;2022-07-29T05:11:49;12.20;;;4.65;;
34988;SDS011;21192;40.182;44.516;2022-07-29T05:14:15;17.05;;;5.30;;
34988;SDS011;21192;40.182;44.516;2022-07-29T05:16:41;11.00;;;4.82;;
34988;SDS011;21192;40.182;44.516;2022-07-29T05:19:08;12.35;;;4.85;;
34988;SDS011;21192;40.182;44.516;2022-07-29T05:21:34;16.20;;;6.15;;
34988;SDS011;21192;40.182;44.516;2022-07-29T05:24:00;14.45;;;5.45;;
34988;SDS011;21192;40.182;44.516;2022-07-29T05:26:26;20.60;;;5.93;;
34988;SDS011;21192;40.182;44.516;2022-07-29T05:28:52;17.05;;;6.35;;
34988;SDS011;21192;40.182;44.516;2022-07-29T05:31:19;20.33;;;5.82;;
34988;SDS011;21192;40.182;44.516;2022-07-29T05:33:45;13.55;;;4.95;;
34988;SDS011;21192;40.182;44.516;2022-07-29T05:36:11;13.20;;;4.80;;
34988;SDS011;21192;40.182;44.516;2022-07-29T05:38:37;23.73;;;5.32;;
34988;SDS011;21192;40.182;44.516;2022-07-29T05:41:03;10.32;;;4.38;;
34988;SDS011;21192;40.182;44.516;2022-07-29T05:43:30;13.45;;;4.25;;
34988;SDS011;21192;40.182;44.516;2022-07-29T05:45:56;8.60;;;4.72;;
34988;SDS011;21192;40.182;44.516;2022-07-29T05:48:23;13.70;;;4.90;;
34988;SDS011;21192;40.182;44.516;2022-07-29T05:50:49;18.08;;;6.00;;
34988;SDS011;21192;40.182;44.516;2022-07-29T05:53:15;15.75;;;6.30;;
34988;SDS011;21192;40.182;44.516;2022-07-29T05:55:42;19.83;;;8.70;;
34988;SDS011;21192;40.182;44.516;2022-07-29T05:58:08;16.40;;;6.45;;
34988;SDS011;21192;40.182;44.516;2022-07-29T06:00:34;19.48;;;7.88;;
34988;SDS011;21192;40.182;44.516;2022-07-29T06:03:00;19.63;;;6.35;;
34988;SDS011;21192;40.182;44.516;2022-07-29T06:05:26;17.30;;;6.35;;
34988;SDS011;21192;40.182;44.516;2022-07-29T06:07:52;12.35;;;5.10;;
34988;SDS011;21192;40.182;44.516;2022-07-29T06:10:18;13.00;;;4.60;;
34988;SDS011;21192;40.182;44.516;2022-07-29T06:12:44;18.40;;;5.82;;
34988;SDS011;21192;40.182;44.516;2022-07-29T06:15:10;17.05;;;5.70;;
34988;SDS011;21192;40.182;44.516;2022-07-29T06:17:36;18.75;;;4.55;;
34988;SDS011;21192;40.182;44.516;2022-07-29T06:20:02;16.48;;;4.97;;
34988;SDS011;21192;40.182;44.516;2022-07-29T06:22:28;14.57;;;4.90;;
34988;SDS011;21192;40.182;44.516;2022-07-29T06:24:55;10.38;;;3.72;;
34988;SDS011;21192;40.182;44.516;2022-07-29T06:27:21;12.15;;;4.68;;
34988;SDS011;21192;40.182;44.516;2022-07-29T06:29:47;14.60;;;5.20;;
34988;SDS011;21192;40.182;44.516;2022-07-29T06:32:13;18.92;;;5.32;;
34988;SDS011;21192;40.182;44.516;2022-07-29T06:34:39;7.28;;;4.28;;
34988;SDS011;21192;40.182;44.516;2022-07-29T06:37:05;20.67;;;5.18;;
34988;SDS011;21192;40.182;44.516;2022-07-29T06:39:33;12.05;;;4.15;;
34988;SDS011;21192;40.182;44.516;2022-07-29T06:42:01;16.60;;;5.63;;
34988;SDS011;21192;40.182;44.516;2022-07-29T06:44:28;10.07;;;3.80;;
34988;SDS011;21192;40.182;44.516;2022-07-29T06:46:55;15.73;;;4.55;;
34988;SDS011;21192;40.182;44.516;2022-07-29T06:49:21;13.73;;;4.82;;
34988;SDS011;21192;40.182;44.516;2022-07-29T06:51:48;21.92;;;5.25;;
34988;SDS011;21192;40.182;44.516;2022-07-29T06:54:14;14.40;;;4.60;;
34988;SDS011;21192;40.182;44.516;2022-07-29T06:56:40;17.55;;;5.15;;
34988;SDS011;21192;40.182;44.516;2022-07-29T06:59:07;14.48;;;4.75;;
34988;SDS011;21192;40.182;44.516;2022-07-29T07:01:35;17.48;;;5.20;;
34988;SDS011;21192;40.182;44.516;2022-07-29T07:04:02;16.70;;;5.47;;
34988;SDS011;21192;40.182;44.516;2022-07-29T07:06:28;14.60;;;4.90;;
34988;SDS011;21192;40.182;44.516;2022-07-29T07:08:54;14.52;;;4.90;;
34988;SDS011;21192;40.182;44.516;2022-07-29T07:11:20;14.73;;;5.55;;
34988;SDS011;21192;40.182;44.516;2022-07-29T07:13:46;20.17;;;5.88;;
34988;SDS011;21192;40.182;44.516;2022-07-29T07:16:12;21.83;;;5.20;;
34988;SDS011;21192;40.182;44.516;2022-07-29T07:18:38;11.70;;;4.65;;
34988;SDS011;21192;40.182;44.516;2022-07-29T07:21:04;17.10;;;4.43;;
34988;SDS011;21192;40.182;44.516;2022-07-29T07:23:30;19.23;;;4.47;;
34988;SDS011;21192;40.182;44.516;2022-07-29T07:25:56;19.52;;;5.10;;
34988;SDS011;21192;40.182;44.516;2022-07-29T07:28:22;17.02;;;5.78;;
34988;SDS011;21192;40.182;44.516;2022-07-29T07:30:48;22.00;;;6.78;;
34988;SDS011;21192;40.182;44.516;2022-07-29T07:33:14;16.77;;;5.85;;
34988;SDS011;21192;40.182;44.516;2022-07-29T07:35:40;18.58;;;5.50;;
34988;SDS011;21192;40.182;44.516;2022-07-29T07:38:08;22.85;;;5.70;;
34988;SDS011;21192;40.182;44.516;2022-07-29T07:40:34;18.27;;;6.45;;
34988;SDS011;21192;40.182;44.516;2022-07-29T07:43:00;20.38;;;6.07;;
34988;SDS011;21192;40.182;44.516;2022-07-29T07:45:27;21.20;;;5.78;;
34988;SDS011;21192;40.182;44.516;2022-07-29T07:47:53;15.02;;;5.78;;
34988;SDS011;21192;40.182;44.516;2022-07-29T07:50:19;12.68;;;5.05;;
34988;SDS011;21192;40.182;44.516;2022-07-29T07:52:55;11.15;;;4.45;;
34988;SDS011;21192;40.182;44.516;2022-07-29T07:55:24;13.38;;;5.03;;
34988;SDS011;21192;40.182;44.516;2022-07-29T07:57:51;20.77;;;9.10;;
34988;SDS011;21192;40.182;44.516;2022-07-29T08:00:17;19.50;;;5.88;;
34988;SDS011;21192;40.182;44.516;2022-07-29T08:02:44;11.15;;;5.18;;
34988;SDS011;21192;40.182;44.516;2022-07-29T08:05:10;16.85;;;6.85;;
34988;SDS011;21192;40.182;44.516;2022-07-29T08:07:40;18.73;;;7.10;;
34988;SDS011;21192;40.182;44.516;2022-07-29T08:10:06;15.23;;;5.70;;
34988;SDS011;21192;40.182;44.516;2022-07-29T08:12:33;19.98;;;7.03;;
34988;SDS011;21192;40.182;44.516;2022-07-29T08:14:59;19.55;;;7.03;;
34988;SDS011;21192;40.182;44.516;2022-07-29T08:17:25;14.95;;;6.25;;
34988;SDS011;21192;40.182;44.516;2022-07-29T08:19:51;14.95;;;5.72;;
34988;SDS011;21192;40.182;44.516;2022-07-29T08:22:17;17.48;;;4.70;;
34988;SDS011;21192;40.182;44.516;2022-07-29T08:24:43;18.02;;;6.35;;
34988;SDS011;21192;40.182;44.516;2022-07-29T08:27:12;15.35;;;7.20;;
34988;SDS011;21192;40.182;44.516;2022-07-29T08:29:39;17.45;;;6.55;;
34988;SDS011;21192;40.182;44.516;2022-07-29T08:32:05;18.40;;;7.00;;
34988;SDS011;21192;40.182;44.516;2022-07-29T08:34:31;21.90;;;7.13;;
34988;SDS011;21192;40.182;44.516;2022-07-29T08:36:57;23.63;;;7.40;;
34988;SDS011;21192;40.182;44.516;2022-07-29T08:39:24;21.25;;;6.65;;
34988;SDS011;21192;40.182;44.516;2022-07-29T08:41:50;23.35;;;8.85;;
34988;SDS011;21192;40.182;44.516;2022-07-29T08:44:20;17.20;;;7.32;;
34988;SDS011;21192;40.182;44.516;2022-07-29T08:46:47;23.67;;;6.93;;
34988;SDS011;21192;40.182;44.516;2022-07-29T08:49:14;17.13;;;6.97;;
34988;SDS011;21192;40.182;44.516;2022-07-29T08:51:40;23.00;;;8.77;;
34988;SDS011;21192;40.182;44.516;2022-07-29T08:54:08;22.02;;;9.02;;
34988;SDS011;21192;40.182;44.516;2022-07-29T08:56:34;22.40;;;7.80;;
34988;SDS011;21192;40.182;44.516;2022-07-29T08:59:02;18.02;;;7.22;;
34988;SDS011;21192;40.182;44.516;2022-07-29T09:01:30;20.85;;;8.02;;
34988;SDS011;21192;40.182;44.516;2022-07-29T09:03:58;23.13;;;8.18;;
34988;SDS011;21192;40.182;44.516;2022-07-29T09:06:28;20.58;;;7.07;;
34988;SDS011;21192;40.182;44.516;2022-07-29T09:08:58;22.50;;;7.75;;
34988;SDS011;21192;40.182;44.516;2022-07-29T09:11:25;21.17;;;6.68;;
34988;SDS011;21192;40.182;44.516;2022-07-29T09:13:51;18.98;;;6.63;;
34988;SDS011;21192;40.182;44.516;2022-07-29T09:16:17;26.20;;;9.13;;
34988;SDS011;21192;40.182;44.516;2022-07-29T09:18:44;26.05;;;8.82;;
34988;SDS011;21192;40.182;44.516;2022-07-29T09:21:12;22.38;;;8.15;;
34988;SDS011;21192;40.182;44.516;2022-07-29T09:24:02;20.98;;;7.72;;
34988;SDS011;21192;40.182;44.516;2022-07-29T09:26:30;15.20;;;6.82;;
34988;SDS011;21192;40.182;44.516;2022-07-29T09:28:57;15.63;;;5.78;;
34988;SDS011;21192;40.182;44.516;2022-07-29T09:31:34;26.90;;;8.93;;
34988;SDS011;21192;40.182;44.516;2022-07-29T09:34:02;19.42;;;6.97;;
34988;SDS011;21192;40.182;44.516;2022-07-29T09:36:28;17.65;;;8.07;;
34988;SDS011;21192;40.182;44.516;2022-07-29T09:39:01;31.08;;;9.23;;
34988;SDS011;21192;40.182;44.516;2022-07-29T09:41:28;19.90;;;7.22;;
34988;SDS011;21192;40.182;44.516;2022-07-29T09:43:55;18.35;;;6.85;;
34988;SDS011;21192;40.182;44.516;2022-07-29T09:46:22;19.70;;;5.63;;
34988;SDS011;21192;40.182;44.516;2022-07-29T09:49:08;20.65;;;7.97;;
34988;SDS011;21192;40.182;44.516;2022-07-29T09:51:36;16.00;;;6.53;;
34988;SDS011;21192;40.182;44.516;2022-07-29T09:54:03;19.30;;;6.40;;
34988;SDS011;21192;40.182;44.516;2022-07-29T09:56:48;22.88;;;7.60;;
34988;SDS011;21192;40.182;44.516;2022-07-29T09:59:15;20.52;;;7.18;;
34988;SDS011;21192;40.182;44.516;2022-07-29T10:01:42;22.40;;;7.53;;
34988;SDS011;21192;40.182;44.516;2022-07-29T10:04:08;16.75;;;7.55;;
34988;SDS011;21192;40.182;44.516;2022-07-29T10:06:34;20.65;;;6.85;;
34988;SDS011;21192;40.182;44.516;2022-07-29T10:09:07;23.90;;;8.05;;
34988;SDS011;21192;40.182;44.516;2022-07-29T10:11:34;29.55;;;8.90;;
34988;SDS011;21192;40.182;44.516;2022-07-29T10:14:01;24.25;;;8.48;;
34988;SDS011;21192;40.182;44.516;2022-07-29T10:16:28;27.08;;;8.88;;
34988;SDS011;21192;40.182;44.516;2022-07-29T10:19:00;21.27;;;7.10;;
34988;SDS011;21192;40.182;44.516;2022-07-29T10:21:26;24.00;;;7.60;;
34988;SDS011;21192;40.182;44.516;2022-07-29T10:23:53;19.92;;;7.25;;
34988;SDS011;21192;40.182;44.516;2022-07-29T10:26:20;23.45;;;7.82;;
34988;SDS011;21192;40.182;44.516;2022-07-29T10:28:46;15.48;;;5.85;;
34988;SDS011;21192;40.182;44.516;2022-07-29T10:31:22;17.38;;;5.45;;
34988;SDS011;21192;40.182;44.516;2022-07-29T10:44:26;19.67;;;7.22;;
34988;SDS011;21192;40.182;44.516;2022-07-29T10:46:53;19.80;;;7.72;;
34988;SDS011;21192;40.182;44.516;2022-07-29T10:49:21;22.40;;;7.55;;
34988;SDS011;21192;40.182;44.516;2022-07-29T11:05:11;31.50;;;8.88;;
34988;SDS011;21192;40.182;44.516;2022-07-29T11:07:40;14.98;;;7.45;;
34988;SDS011;21192;40.182;44.516;2022-07-29T11:10:26;34.13;;;9.77;;
34988;SDS011;21192;40.182;44.516;2022-07-29T11:12:52;32.38;;;9.82;;
34988;SDS011;21192;40.182;44.516;2022-07-29T11:15:19;15.00;;;5.97;;
34988;SDS011;21192;40.182;44.516;2022-07-29T11:22:56;23.40;;;8.20;;
34988;SDS011;21192;40.182;44.516;2022-07-29T11:25:22;19.42;;;7.53;;
34988;SDS011;21192;40.182;44.516;2022-07-29T11:27:49;16.85;;;5.32;;
34988;SDS011;21192;40.182;44.516;2022-07-29T11:30:16;18.02;;;6.57;;
34988;SDS011;21192;40.182;44.516;2022-07-29T11:32:43;16.67;;;6.47;;
34988;SDS011;21192;40.182;44.516;2022-07-29T11:35:20;21.55;;;7.55;;
34988;SDS011;21192;40.182;44.516;2022-07-29T11:43:56;25.90;;;8.88;;
34988;SDS011;21192;40.182;44.516;2022-07-29T11:49:24;18.63;;;6.57;;
34988;SDS011;21192;40.182;44.516;2022-07-29T11:51:52;26.85;;;8.15;;
34988;SDS011;21192;40.182;44.516;2022-07-29T11:54:33;25.17;;;8.85;;
34988;SDS011;21192;40.182;44.516;2022-07-29T11:57:00;31.63;;;9.43;;
34988;SDS011;21192;40.182;44.516;2022-07-29T11:59:26;27.42;;;8.85;;
34988;SDS011;21192;40.182;44.516;2022-07-29T12:04:20;16.50;;;6.60;;
34988;SDS011;21192;40.182;44.516;2022-07-29T12:06:54;17.77;;;5.93;;
34988;SDS011;21192;40.182;44.516;2022-07-29T12:09:22;22.63;;;7.80;;
34988;SDS011;21192;40.182;44.516;2022-07-29T12:11:57;38.35;;;11.70;;
34988;SDS011;21192;40.182;44.516;2022-07-29T12:14:28;35.78;;;10.43;;
34988;SDS011;21192;40.182;44.516;2022-07-29T12:16:55;31.95;;;9.45;;
34988;SDS011;21192;40.182;44.516;2022-07-29T12:19:22;22.17;;;7.78;;
34988;SDS011;21192;40.182;44.516;2022-07-29T12:21:49;19.35;;;6.60;;
34988;SDS011;21192;40.182;44.516;2022-07-29T12:24:16;16.55;;;5.63;;
34988;SDS011;21192;40.182;44.516;2022-07-29T12:26:56;24.98;;;7.80;;
34988;SDS011;21192;40.182;44.516;2022-07-29T12:29:24;27.00;;;8.93;;
34988;SDS011;21192;40.182;44.516;2022-07-29T12:31:53;27.73;;;10.68;;
34988;SDS011;21192;40.182;44.516;2022-07-29T12:34:20;28.02;;;9.27;;
34988;SDS011;21192;40.182;44.516;2022-07-29T12:36:48;21.85;;;7.22;;
34988;SDS011;21192;40.182;44.516;2022-07-29T12:39:17;23.55;;;6.50;;
34988;SDS011;21192;40.182;44.516;2022-07-29T12:41:44;37.92;;;9.30;;
34988;SDS011;21192;40.182;44.516;2022-07-29T12:44:10;19.50;;;7.03;;
34988;SDS011;21192;40.182;44.516;2022-07-29T12:46:37;23.45;;;6.82;;
34988;SDS011;21192;40.182;44.516;2022-07-29T12:49:03;24.33;;;8.27;;
34988;SDS011;21192;40.182;44.516;2022-07-29T12:51:30;20.75;;;7.57;;
34988;SDS011;21192;40.182;44.516;2022-07-29T12:56:35;24.45;;;8.38;;
34988;SDS011;21192;40.182;44.516;2022-07-29T12:59:18;31.35;;;8.25;;
34988;SDS011;21192;40.182;44.516;2022-07-29T13:01:47;19.25;;;6.38;;
34988;SDS011;21192;40.182;44.516;2022-07-29T13:04:24;38.85;;;8.63;;
34988;SDS011;21192;40.182;44.516;2022-07-29T13:06:57;30.42;;;9.25;;
34988;SDS011;21192;40.182;44.516;2022-07-29T13:09:50;16.90;;;6.32;;
34988;SDS011;21192;40.182;44.516;2022-07-29T13:12:16;13.43;;;5.55;;
34988;SDS011;21192;40.182;44.516;2022-07-29T13:14:43;25.17;;;6.28;;
34988;SDS011;21192;40.182;44.516;2022-07-29T13:17:15;21.27;;;5.90;;
34988;SDS011;21192;40.182;44.516;2022-07-29T13:19:46;25.20;;;7.18;;
34988;SDS011;21192;40.182;44.516;2022-07-29T13:22:17;28.30;;;8.80;;
34988;SDS011;21192;40.182;44.516;2022-07-29T13:25:05;28.92;;;10.85;;
34988;SDS011;21192;40.182;44.516;2022-07-29T13:27:32;33.15;;;9.10;;
34988;SDS011;21192;40.182;44.516;2022-07-29T13:30:02;17.52;;;7.13;;
34988;SDS011;21192;40.182;44.516;2022-07-29T13:32:30;23.77;;;8.70;;
34988;SDS011;21192;40.182;44.516;2022-07-29T13:35:00;24.95;;;9.27;;
34988;SDS011;21192;40.182;44.516;2022-07-29T13:37:27;20.77;;;7.15;;
34988;SDS011;21192;40.182;44.516;2022-07-29T13:39:57;17.60;;;6.93;;
34988;SDS011;21192;40.182;44.516;2022-07-29T13:42:24;31.33;;;10.02;;
34988;SDS011;21192;40.182;44.516;2022-07-29T13:44:51;31.88;;;10.10;;
34988;SDS011;21192;40.182;44.516;2022-07-29T13:47:18;30.25;;;8.45;;
34988;SDS011;21192;40.182;44.516;2022-07-29T13:49:45;35.80;;;9.65;;
34988;SDS011;21192;40.182;44.516;2022-07-29T13:52:11;36.53;;;10.43;;
34988;SDS011;21192;40.182;44.516;2022-07-29T13:54:37;34.00;;;8.48;;
34988;SDS011;21192;40.182;44.516;2022-07-29T13:57:04;31.60;;;8.60;;
34988;SDS011;21192;40.182;44.516;2022-07-29T13:59:30;35.85;;;7.30;;
34988;SDS011;21192;40.182;44.516;2022-07-29T14:01:56;21.20;;;7.53;;
34988;SDS011;21192;40.182;44.516;2022-07-29T14:04:22;26.90;;;8.55;;
34988;SDS011;21192;40.182;44.516;2022-07-29T14:06:48;18.20;;;6.25;;
34988;SDS011;21192;40.182;44.516;2022-07-29T14:09:15;19.67;;;6.10;;
34988;SDS011;21192;40.182;44.516;2022-07-29T14:11:41;28.48;;;7.30;;
34988;SDS011;21192;40.182;44.516;2022-07-29T14:14:07;25.02;;;7.43;;
34988;SDS011;21192;40.182;44.516;2022-07-29T14:16:35;22.38;;;6.80;;
34988;SDS011;21192;40.182;44.516;2022-07-29T14:19:01;21.58;;;5.75;;
34988;SDS011;21192;40.182;44.516;2022-07-29T14:21:27;28.15;;;8.30;;
34988;SDS011;21192;40.182;44.516;2022-07-29T14:23:53;21.00;;;6.53;;
34988;SDS011;21192;40.182;44.516;2022-07-29T14:26:20;23.73;;;6.55;;
34988;SDS011;21192;40.182;44.516;2022-07-29T14:28:47;26.48;;;6.78;;
34988;SDS011;21192;40.182;44.516;2022-07-29T14:31:14;29.52;;;6.10;;
34988;SDS011;21192;40.182;44.516;2022-07-29T14:33:40;22.08;;;6.55;;
34988;SDS011;21192;40.182;44.516;2022-07-29T14:36:06;30.98;;;6.78;;
34988;SDS011;21192;40.182;44.516;2022-07-29T14:38:32;29.05;;;7.25;;
34988;SDS011;21192;40.182;44.516;2022-07-29T14:40:58;28.17;;;6.78;;
34988;SDS011;21192;40.182;44.516;2022-07-29T14:43:24;22.13;;;7.32;;
34988;SDS011;21192;40.182;44.516;2022-07-29T14:45:50;26.77;;;6.63;;
34988;SDS011;21192;40.182;44.516;2022-07-29T14:48:16;17.98;;;6.13;;
34988;SDS011;21192;40.182;44.516;2022-07-29T14:50:42;28.15;;;8.50;;
34988;SDS011;21192;40.182;44.516;2022-07-29T14:53:08;27.10;;;8.25;;
34988;SDS011;21192;40.182;44.516;2022-07-29T14:55:34;26.20;;;11.05;;
34988;SDS011;21192;40.182;44.516;2022-07-29T14:58:01;31.20;;;9.50;;
34988;SDS011;21192;40.182;44.516;2022-07-29T15:00:27;26.02;;;7.05;;
34988;SDS011;21192;40.182;44.516;2022-07-29T15:02:57;23.15;;;7.20;;
34988;SDS011;21192;40.182;44.516;2022-07-29T15:05:24;31.35;;;10.07;;
34988;SDS011;21192;40.182;44.516;2022-07-29T15:07:50;30.67;;;10.80;;
34988;SDS011;21192;40.182;44.516;2022-07-29T15:10:16;25.27;;;7.57;;
34988;SDS011;21192;40.182;44.516;2022-07-29T15:12:42;30.20;;;8.85;;
34988;SDS011;21192;40.182;44.516;2022-07-29T15:15:08;20.83;;;8.73;;
34988;SDS011;21192;40.182;44.516;2022-07-29T15:17:35;24.05;;;11.45;;
34988;SDS011;21192;40.182;44.516;2022-07-29T15:20:01;29.20;;;10.18;;